Time;durP1;ratioP1;P1;durP2;ratioP2;P2;SDS_P1;SDS_P2;PMS_P1;PMS_P2;Temp;Humidity;BMP_temperature;BMP_pressure;BME280_temperature;BME280_humidity;BME280_pressure;Samples;Min_cycle;Max_cycle;Signal;HPM_P1;HPM_P2
2023/03/19 00:02:19;;;;;;;8.33;6.93;;;9.90;99.90;;;;;;5072065;28;20169;-87
2023/03/19 00:04:45;;;;;;;8.63;6.47;;;9.90;99.90;;;;;;5053445;28;20196;-87
2023/03/19 00:07:12;;;;;;;11.13;6.73;;;10.00;99.90;;;;;;5053806;28;20216;-87
2023/03/19 00:09:38;;;;;;;7.67;5.57;;;10.00;99.90;;;;;;5053652;28;20204;-87
2023/03/19 00:12:05;;;;;;;7.30;5.37;;;10.00;99.90;;;;;;5053881;28;20173;-87
2023/03/19 00:14:31;;;;;;;7.03;5.07;;;10.00;99.90;;;;;;5053098;28;20299;-87
2023/03/19 00:16:57;;;;;;;6.50;4.83;;;10.00;99.90;;;;;;5053686;28;20280;-87
2023/03/19 00:19:24;;;;;;;7.20;5.13;;;10.00;99.90;;;;;;5052536;28;20272;-87
2023/03/19 00:21:50;;;;;;;8.23;5.47;;;9.90;99.90;;;;;;5069842;28;20173;-87
2023/03/19 00:24:16;;;;;;;6.33;5.30;;;9.80;99.90;;;;;;5053209;28;20184;-88
2023/03/19 00:26:42;;;;;;;7.77;5.10;;;9.80;99.90;;;;;;5032952;28;20182;-87
2023/03/19 00:29:08;;;;;;;6.37;5.03;;;9.70;99.90;;;;;;5017069;28;20234;-87
2023/03/19 00:31:35;;;;;;;8.17;5.37;;;9.70;99.90;;;;;;5033697;28;20186;-87
2023/03/19 00:34:02;;;;;;;7.00;5.33;;;9.70;99.90;;;;;;5032642;28;20198;-88
2023/03/19 00:36:28;;;;;;;8.97;5.90;;;9.70;99.90;;;;;;5017077;28;20661;-87
2023/03/19 00:38:56;;;;;;;8.13;5.80;;;9.70;99.90;;;;;;5017123;28;20180;-87
2023/03/19 00:41:23;;;;;;;8.10;5.07;;;9.60;99.90;;;;;;5033363;28;20185;-87
2023/03/19 00:43:56;;;;;;;6.20;4.90;;;9.70;99.90;;;;;;5033547;28;20217;-88
2023/03/19 00:46:23;;;;;;;9.20;5.70;;;9.80;99.90;;;;;;5042492;28;20323;-87
2023/03/19 00:48:52;;;;;;;6.27;5.43;;;9.80;99.90;;;;;;5053171;28;20173;-87
2023/03/19 00:51:19;;;;;;;8.27;5.83;;;9.80;99.90;;;;;;5054054;28;20188;-87
2023/03/19 00:53:44;;;;;;;9.43;5.67;;;9.80;99.90;;;;;;5040430;28;20208;-87
2023/03/19 00:56:12;;;;;;;8.23;5.40;;;9.80;99.90;;;;;;5056591;28;20205;-87
2023/03/19 00:58:39;;;;;;;6.57;5.07;;;9.80;99.90;;;;;;5057011;28;20264;-87
2023/03/19 01:01:11;;;;;;;6.43;4.60;;;9.90;99.90;;;;;;5056800;28;20177;-87
2023/03/19 01:03:37;;;;;;;6.53;4.70;;;9.90;99.90;;;;;;5057078;28;20185;-86
2023/03/19 01:06:05;;;;;;;6.37;4.60;;;9.90;99.90;;;;;;5055811;28;20200;-87
2023/03/19 01:08:32;;;;;;;7.47;5.37;;;10.00;99.90;;;;;;5040235;28;20187;-87
2023/03/19 01:11:09;;;;;;;8.20;4.87;;;9.90;99.90;;;;;;5056583;28;20224;-87
2023/03/19 01:13:35;;;;;;;7.47;5.30;;;10.00;99.90;;;;;;5056122;28;20243;-87
2023/03/19 01:16:02;;;;;;;6.50;5.20;;;9.90;99.90;;;;;;5039804;28;20236;-87
2023/03/19 01:18:28;;;;;;;7.77;5.23;;;9.90;99.90;;;;;;5056444;28;20597;-87
2023/03/19 01:20:54;;;;;;;7.60;5.27;;;10.00;99.90;;;;;;5056347;28;20649;-87
2023/03/19 01:23:20;;;;;;;6.57;5.07;;;10.00;99.90;;;;;;5056613;28;20222;-87
2023/03/19 01:25:46;;;;;;;9.87;5.47;;;10.00;99.90;;;;;;5056247;28;20204;-88
2023/03/19 01:28:12;;;;;;;7.90;5.30;;;10.00;99.90;;;;;;5056254;28;20181;-88
2023/03/19 01:30:39;;;;;;;8.77;5.50;;;10.00;99.90;;;;;;5056277;28;20186;-87
2023/03/19 01:33:08;;;;;;;7.10;5.27;;;10.00;99.90;;;;;;5056723;28;20177;-87
2023/03/19 01:35:40;;;;;;;6.03;5.13;;;9.80;99.90;;;;;;5056190;28;20197;-87
2023/03/19 01:38:06;;;;;;;6.77;5.33;;;9.70;99.90;;;;;;5056040;28;20177;-88
2023/03/19 01:40:33;;;;;;;8.53;4.90;;;9.60;99.90;;;;;;5055929;28;20185;-87
2023/03/19 01:43:17;;;;;;;7.87;5.30;;;9.50;99.90;;;;;;5056149;28;20158;-87
2023/03/19 01:45:49;;;;;;;7.07;5.20;;;9.50;99.90;;;;;;5039436;28;20193;-87
2023/03/19 01:48:48;;;;;;;7.67;5.13;;;9.50;99.90;;;;;;5059043;28;20168;-87
2023/03/19 01:51:20;;;;;;;6.57;5.40;;;9.50;99.90;;;;;;5055592;28;20181;-87
2023/03/19 01:54:03;;;;;;;12.20;5.80;;;9.50;99.90;;;;;;5057073;28;20205;-87
2023/03/19 01:57:03;;;;;;;5.37;4.33;;;9.60;99.90;;;;;;5058326;28;20189;-87
2023/03/19 01:59:53;;;;;;;9.90;4.80;;;9.50;99.90;;;;;;5058666;28;20160;-87
2023/03/19 02:02:33;;;;;;;5.03;4.17;;;9.40;99.90;;;;;;5076260;28;20177;-87
2023/03/19 02:05:14;;;;;;;6.70;4.40;;;9.40;99.90;;;;;;5064405;28;20250;-87
2023/03/19 02:07:43;;;;;;;7.53;4.43;;;9.30;99.90;;;;;;5055611;28;20185;-87
2023/03/19 02:10:13;;;;;;;6.43;4.27;;;9.20;99.90;;;;;;5055469;28;20184;-87
2023/03/19 02:12:39;;;;;;;6.07;4.27;;;9.30;99.90;;;;;;5038825;28;20173;-86
2023/03/19 02:15:06;;;;;;;6.70;4.90;;;9.30;99.90;;;;;;5055293;28;20216;-86
2023/03/19 02:17:32;;;;;;;7.30;5.00;;;9.30;99.90;;;;;;5054764;28;20173;-87
2023/03/19 02:20:40;;;;;;;8.07;4.83;;;9.30;99.90;;;;;;5046702;28;20223;-87
2023/03/19 02:23:34;;;;;;;7.03;5.10;;;9.30;99.90;;;;;;5055147;28;20227;-87
2023/03/19 02:26:06;;;;;;;6.97;4.80;;;9.30;99.90;;;;;;5055170;28;20197;-87
2023/03/19 02:28:34;;;;;;;8.50;4.77;;;9.40;99.90;;;;;;5055108;28;20638;-87
2023/03/19 02:31:00;;;;;;;5.53;4.40;;;9.30;99.90;;;;;;5055185;28;20181;-87
2023/03/19 02:33:28;;;;;;;7.00;4.70;;;9.40;99.90;;;;;;5055260;28;20258;-87
2023/03/19 02:35:55;;;;;;;7.97;4.43;;;9.40;99.90;;;;;;5038551;28;20247;-86
2023/03/19 02:38:23;;;;;;;5.50;4.73;;;9.40;99.90;;;;;;5055282;28;20205;-87
2023/03/19 02:41:11;;;;;;;7.73;5.27;;;9.30;99.90;;;;;;5054979;28;20177;-86
2023/03/19 02:43:40;;;;;;;7.77;5.10;;;9.30;99.90;;;;;;5054803;28;20648;-87
2023/03/19 02:46:10;;;;;;;8.13;5.10;;;9.20;99.90;;;;;;5054890;28;20212;-86
2023/03/19 02:48:36;;;;;;;5.93;5.17;;;9.00;99.90;;;;;;5038116;28;20181;-86
2023/03/19 02:51:03;;;;;;;7.20;5.40;;;9.00;99.90;;;;;;5054566;28;20260;-87
2023/03/19 02:53:30;;;;;;;9.23;5.90;;;9.00;99.90;;;;;;5054460;28;20188;-87
2023/03/19 02:55:56;;;;;;;7.87;5.00;;;8.90;99.90;;;;;;5038914;28;20289;-87
2023/03/19 02:58:22;;;;;;;6.97;5.23;;;8.80;99.90;;;;;;5034643;28;20261;-87
2023/03/19 03:00:47;;;;;;;6.43;5.07;;;8.90;99.90;;;;;;5034681;28;20177;-86
2023/03/19 03:03:13;;;;;;;8.00;5.03;;;8.90;99.90;;;;;;5051211;28;20661;-87
2023/03/19 03:05:39;;;;;;;5.50;4.93;;;8.90;99.90;;;;;;5050853;28;20208;-87
2023/03/19 03:08:06;;;;;;;6.67;5.30;;;9.00;99.90;;;;;;5050777;28;20173;-87
2023/03/19 03:10:32;;;;;;;5.87;5.03;;;9.10;99.90;;;;;;5051105;28;20261;-87
2023/03/19 03:13:00;;;;;;;8.77;5.40;;;9.10;99.90;;;;;;5051696;28;20200;-87
2023/03/19 03:15:26;;;;;;;6.00;5.37;;;9.10;99.90;;;;;;5053804;28;20239;-86
2023/03/19 03:17:52;;;;;;;7.13;4.70;;;9.10;99.90;;;;;;5038325;28;20182;-87
2023/03/19 03:20:18;;;;;;;6.63;5.20;;;9.10;99.90;;;;;;5041470;28;20181;-86
2023/03/19 03:22:45;;;;;;;5.97;5.20;;;9.00;99.90;;;;;;5053937;28;20268;-87
2023/03/19 03:25:11;;;;;;;6.17;5.00;;;8.90;99.90;;;;;;5053982;28;20205;-87
2023/03/19 03:27:38;;;;;;;5.63;4.70;;;8.90;99.90;;;;;;5054233;28;20177;-87
2023/03/19 03:30:07;;;;;;;8.20;5.13;;;8.90;99.90;;;;;;5054153;28;20272;-87
2023/03/19 03:32:38;;;;;;;7.47;4.87;;;8.90;99.90;;;;;;5072158;28;20260;-87
2023/03/19 03:35:05;;;;;;;6.97;4.80;;;8.90;99.90;;;;;;5049436;28;20210;-86
2023/03/19 03:37:31;;;;;;;9.37;5.07;;;8.90;99.90;;;;;;5050112;28;20185;-87
2023/03/19 03:39:57;;;;;;;9.57;5.10;;;9.00;99.90;;;;;;5052460;28;20211;-86
2023/03/19 03:42:23;;;;;;;6.50;4.97;;;9.00;99.90;;;;;;5036739;28;20192;-87
2023/03/19 03:44:49;;;;;;;5.60;4.43;;;9.10;99.90;;;;;;5053645;28;20292;-86
2023/03/19 03:47:16;;;;;;;7.30;5.00;;;9.20;99.90;;;;;;5053987;28;20183;-87
2023/03/19 03:49:42;;;;;;;7.07;5.00;;;9.20;99.90;;;;;;5040140;28;20206;-87
2023/03/19 03:52:08;;;;;;;6.23;4.33;;;9.30;99.90;;;;;;5054188;28;20257;-87
2023/03/19 03:54:35;;;;;;;8.33;4.47;;;9.40;99.90;;;;;;5053683;28;20235;-86
2023/03/19 03:57:01;;;;;;;5.50;4.83;;;9.30;99.90;;;;;;5054109;28;20219;-86
2023/03/19 03:59:27;;;;;;;7.87;4.73;;;9.30;99.90;;;;;;5059564;28;20177;-86
2023/03/19 04:01:53;;;;;;;10.03;5.50;;;9.30;99.90;;;;;;5053581;28;20256;-86
2023/03/19 04:04:19;;;;;;;7.10;5.53;;;9.30;99.90;;;;;;5053821;28;20260;-86
2023/03/19 04:06:46;;;;;;;8.07;4.77;;;9.30;99.90;;;;;;5053660;28;20181;-86
2023/03/19 04:09:20;;;;;;;8.73;5.00;;;9.30;99.90;;;;;;5054912;28;20187;-86
2023/03/19 04:11:46;;;;;;;6.40;4.90;;;9.20;99.90;;;;;;5070287;28;20178;-87
2023/03/19 04:14:12;;;;;;;7.13;4.83;;;9.10;99.90;;;;;;5053399;28;20201;-86
2023/03/19 04:16:39;;;;;;;5.67;4.43;;;9.00;99.90;;;;;;5053729;28;20176;-86
2023/03/19 04:19:06;;;;;;;5.90;5.07;;;9.00;99.90;;;;;;5053495;28;20260;-86
2023/03/19 04:21:32;;;;;;;7.63;5.17;;;8.90;99.90;;;;;;5053795;28;20220;-86
2023/03/19 04:23:58;;;;;;;6.03;5.37;;;8.90;99.90;;;;;;5053489;28;20182;-87
2023/03/19 04:26:25;;;;;;;6.17;5.00;;;8.90;99.90;;;;;;5038290;28;20239;-86
2023/03/19 04:28:51;;;;;;;5.57;4.80;;;8.90;99.90;;;;;;5057653;28;20211;-87
2023/03/19 04:31:17;;;;;;;5.97;4.97;;;8.90;99.90;;;;;;5040780;28;20184;-87
2023/03/19 04:33:44;;;;;;;7.00;4.97;;;9.00;99.90;;;;;;5057102;28;20229;-87
2023/03/19 04:36:10;;;;;;;6.70;5.13;;;9.00;99.90;;;;;;5057147;28;20288;-86
2023/03/19 04:38:37;;;;;;;8.47;5.53;;;8.90;99.90;;;;;;5057266;28;20174;-86
2023/03/19 04:41:03;;;;;;;7.67;5.37;;;8.80;99.90;;;;;;5057448;28;20184;-87
2023/03/19 04:43:32;;;;;;;6.73;5.40;;;8.80;99.90;;;;;;5040773;28;20177;-86
2023/03/19 04:46:00;;;;;;;7.17;5.37;;;8.80;99.90;;;;;;5056937;28;20197;-86
2023/03/19 04:48:27;;;;;;;6.97;5.50;;;8.70;99.90;;;;;;5057298;28;20196;-86
2023/03/19 04:50:55;;;;;;;6.63;5.20;;;8.70;99.90;;;;;;5050012;28;20184;-86
2023/03/19 04:53:23;;;;;;;7.53;5.80;;;8.60;99.90;;;;;;5040614;28;20176;-86
2023/03/19 04:55:50;;;;;;;10.13;7.60;;;8.50;99.90;;;;;;5056327;28;20208;-87
2023/03/19 04:58:18;;;;;;;8.23;5.57;;;8.40;99.90;;;;;;5073358;28;20169;-86
2023/03/19 05:00:52;;;;;;;6.70;5.37;;;8.40;99.90;;;;;;5057763;28;20177;-86
2023/03/19 05:03:25;;;;;;;7.20;5.60;;;8.50;99.90;;;;;;5056667;28;20177;-86
2023/03/19 05:05:53;;;;;;;7.90;6.07;;;8.60;99.90;;;;;;5056208;28;20201;-87
2023/03/19 05:08:19;;;;;;;6.90;5.40;;;8.50;99.90;;;;;;5056652;28;20320;-86
2023/03/19 05:10:46;;;;;;;7.57;5.57;;;8.30;99.90;;;;;;5022929;28;20207;-87
2023/03/19 05:13:12;;;;;;;7.87;6.00;;;8.30;99.90;;;;;;5053263;28;20181;-87
2023/03/19 05:15:44;;;;;;;9.53;6.33;;;8.40;99.90;;;;;;5052186;28;20213;-87
2023/03/19 05:18:12;;;;;;;8.53;6.40;;;8.40;99.90;;;;;;5036488;28;20186;-87
2023/03/19 05:20:42;;;;;;;9.60;6.07;;;8.30;99.90;;;;;;5065071;28;20224;-87
2023/03/19 05:23:16;;;;;;;12.73;6.20;;;8.40;99.90;;;;;;5042201;28;20166;-87
2023/03/19 05:25:53;;;;;;;7.70;5.60;;;8.40;99.90;;;;;;5059098;28;20232;-87
2023/03/19 05:28:34;;;;;;;7.20;5.80;;;8.50;99.90;;;;;;5055533;28;20169;-86
2023/03/19 05:31:03;;;;;;;7.17;5.57;;;8.40;99.90;;;;;;5052534;28;20231;-87
2023/03/19 05:33:39;;;;;;;8.20;6.07;;;8.40;99.90;;;;;;5054284;28;20256;-87
2023/03/19 05:36:06;;;;;;;7.73;5.70;;;8.50;99.90;;;;;;5039668;28;20208;-87
2023/03/19 05:38:50;;;;;;;9.47;6.27;;;8.40;99.90;;;;;;5055933;28;20211;-86
2023/03/19 05:41:23;;;;;;;5.97;4.90;;;8.50;99.90;;;;;;5040631;28;20166;-86
2023/03/19 05:43:57;;;;;;;7.27;5.50;;;8.50;99.90;;;;;;5038795;28;20177;-87
2023/03/19 05:46:42;;;;;;;6.43;5.47;;;8.50;99.90;;;;;;5041943;28;20203;-87
2023/03/19 05:49:09;;;;;;;6.03;5.50;;;8.60;99.90;;;;;;5039668;28;20181;-86
2023/03/19 05:51:35;;;;;;;5.93;4.90;;;8.60;99.90;;;;;;5055817;28;20192;-87
2023/03/19 05:54:02;;;;;;;6.60;5.77;;;8.60;99.90;;;;;;5055476;28;20224;-87
2023/03/19 05:56:34;;;;;;;7.50;5.23;;;8.60;99.90;;;;;;5055805;28;20181;-87
2023/03/19 05:59:20;;;;;;;6.13;5.40;;;8.60;99.90;;;;;;5040660;28;20174;-87
2023/03/19 06:01:57;;;;;;;6.20;5.17;;;8.60;99.90;;;;;;5035808;28;20178;-86
2023/03/19 06:04:24;;;;;;;9.00;5.97;;;8.60;99.90;;;;;;5052743;28;20200;-87
2023/03/19 06:06:50;;;;;;;6.67;5.50;;;8.70;99.90;;;;;;5055786;28;20242;-87
2023/03/19 06:09:17;;;;;;;6.27;5.37;;;8.80;99.90;;;;;;5055825;28;20173;-87
2023/03/19 06:11:48;;;;;;;8.40;5.87;;;8.80;99.90;;;;;;5055515;28;20260;-87
2023/03/19 06:14:41;;;;;;;6.90;5.50;;;8.90;99.90;;;;;;5038909;28;20219;-87
2023/03/19 06:17:25;;;;;;;5.97;5.37;;;8.90;99.90;;;;;;5043521;28;20193;-87
2023/03/19 06:19:54;;;;;;;6.40;5.27;;;8.90;99.90;;;;;;5023923;28;20181;-87
2023/03/19 06:22:19;;;;;;;6.27;5.33;;;8.90;99.90;;;;;;5057820;23;20218;-36
2023/03/19 06:24:45;;;;;;;8.53;6.03;;;8.90;99.90;;;;;;5051541;28;20275;-39
2023/03/19 06:27:11;;;;;;;6.70;5.63;;;8.90;99.90;;;;;;5072356;28;20214;-37
2023/03/19 06:29:37;;;;;;;6.83;5.43;;;8.90;99.90;;;;;;5050913;28;20177;-38
2023/03/19 06:32:15;;;;;;;7.00;5.20;;;8.90;99.90;;;;;;5051983;28;20646;-39
2023/03/19 06:34:42;;;;;;;7.93;5.60;;;8.90;99.90;;;;;;5166386;22;20217;-32
2023/03/19 06:37:07;;;;;;;6.20;5.33;;;8.90;99.90;;;;;;5066998;28;20251;-32
2023/03/19 06:39:34;;;;;;;7.70;5.43;;;8.90;99.90;;;;;;5050496;28;20257;-32
2023/03/19 06:41:59;;;;;;;6.23;5.07;;;8.90;99.90;;;;;;5067376;28;20255;-32
2023/03/19 06:44:26;;;;;;;8.97;5.90;;;8.90;99.90;;;;;;5050449;28;20346;-31
2023/03/19 06:46:52;;;;;;;7.47;5.60;;;8.90;99.90;;;;;;5058470;28;20254;-32
2023/03/19 06:49:18;;;;;;;6.93;5.80;;;8.90;99.90;;;;;;5049980;28;20182;-32
2023/03/19 06:51:44;;;;;;;6.97;6.00;;;9.00;99.90;;;;;;5040194;28;20178;-32
2023/03/19 06:54:10;;;;;;;6.73;5.57;;;9.00;99.90;;;;;;5046824;28;20217;-32
2023/03/19 06:56:35;;;;;;;8.33;5.90;;;9.10;99.90;;;;;;5054651;28;20178;-32
2023/03/19 06:59:01;;;;;;;8.17;6.03;;;9.10;99.90;;;;;;5051763;28;20174;-32
2023/03/19 07:01:27;;;;;;;8.30;6.47;;;9.10;99.90;;;;;;5032038;28;20197;-32
2023/03/19 07:03:54;;;;;;;8.30;6.17;;;9.20;99.90;;;;;;5037364;28;20666;-32
2023/03/19 07:06:20;;;;;;;6.73;5.60;;;9.20;99.90;;;;;;5038401;28;20181;-32
2023/03/19 07:08:46;;;;;;;7.33;5.43;;;9.20;99.90;;;;;;5039839;28;20186;-32
2023/03/19 07:11:13;;;;;;;9.17;5.60;;;9.20;99.90;;;;;;5056621;28;20182;-33
2023/03/19 07:13:39;;;;;;;8.97;6.33;;;9.20;99.90;;;;;;5030931;28;20210;-32
2023/03/19 07:16:06;;;;;;;7.87;5.80;;;9.30;99.90;;;;;;5041145;28;20295;-33
2023/03/19 07:18:32;;;;;;;5.83;5.07;;;9.30;99.90;;;;;;5055161;28;20170;-32
2023/03/19 07:20:59;;;;;;;6.20;5.30;;;9.30;99.90;;;;;;5041651;28;20182;-32
2023/03/19 07:23:26;;;;;;;7.57;5.93;;;9.30;99.90;;;;;;5048959;28;20204;-33
2023/03/19 07:25:52;;;;;;;6.57;5.77;;;9.40;99.90;;;;;;5037760;28;20183;-32
2023/03/19 07:28:18;;;;;;;9.63;7.40;;;9.40;99.90;;;;;;5039922;28;20201;-32
2023/03/19 07:30:45;;;;;;;11.80;7.43;;;9.50;99.90;;;;;;5045349;28;20181;-31
2023/03/19 07:33:11;;;;;;;11.73;7.90;;;9.40;99.90;;;;;;5033609;28;20260;-32
2023/03/19 07:35:37;;;;;;;8.43;6.80;;;9.40;99.90;;;;;;5031909;28;20202;-33
2023/03/19 07:38:02;;;;;;;9.30;6.37;;;9.50;99.90;;;;;;5039334;28;20224;-33
2023/03/19 07:40:28;;;;;;;8.40;6.60;;;9.50;99.90;;;;;;5031470;28;20185;-32
2023/03/19 07:42:54;;;;;;;8.20;5.90;;;9.60;99.90;;;;;;5033240;28;20255;-33
2023/03/19 07:45:21;;;;;;;7.13;5.67;;;9.60;99.90;;;;;;5066238;28;20174;-33
2023/03/19 07:47:50;;;;;;;8.37;5.53;;;9.70;99.90;;;;;;5045062;28;20264;-33
2023/03/19 07:50:16;;;;;;;8.87;5.43;;;9.80;99.90;;;;;;5029705;28;20194;-32
2023/03/19 07:52:46;;;;;;;8.10;5.80;;;9.90;99.90;;;;;;5041122;28;20177;-33
2023/03/19 07:55:12;;;;;;;7.43;6.03;;;10.00;99.90;;;;;;5050000;28;20229;-33
2023/03/19 07:57:38;;;;;;;6.87;5.90;;;10.20;99.90;;;;;;5049874;28;20233;-32
2023/03/19 08:00:04;;;;;;;6.03;5.27;;;10.30;99.90;;;;;;5058843;28;20186;-32
2023/03/19 08:02:39;;;;;;;7.43;5.33;;;10.40;99.90;;;;;;5062196;28;20181;-32
2023/03/19 08:05:06;;;;;;;8.27;6.93;;;10.50;99.90;;;;;;5049612;28;20203;-32
2023/03/19 08:07:32;;;;;;;7.90;5.33;;;10.60;99.90;;;;;;5063533;28;20196;-32
2023/03/19 08:09:58;;;;;;;6.73;6.03;;;10.60;99.90;;;;;;5049116;28;20186;-33
2023/03/19 08:12:25;;;;;;;7.17;5.90;;;10.70;99.90;;;;;;5036042;28;20182;-33
2023/03/19 08:14:51;;;;;;;8.43;5.63;;;10.80;99.90;;;;;;5038586;28;20194;-33
2023/03/19 08:17:17;;;;;;;6.60;5.40;;;10.80;99.90;;;;;;5053343;28;20261;-32
2023/03/19 08:19:43;;;;;;;7.17;5.27;;;10.80;99.90;;;;;;5053158;28;20185;-32
2023/03/19 08:22:10;;;;;;;7.13;5.57;;;10.80;99.90;;;;;;5053320;28;20622;-32
2023/03/19 08:24:36;;;;;;;6.37;5.03;;;10.90;99.90;;;;;;5069797;28;20577;-32
2023/03/19 08:27:02;;;;;;;7.33;5.90;;;11.00;99.90;;;;;;5047773;28;20186;-32
2023/03/19 08:29:28;;;;;;;7.37;6.23;;;11.10;99.90;;;;;;5052931;28;20181;-32
2023/03/19 08:31:55;;;;;;;6.10;5.10;;;11.20;99.90;;;;;;5043401;28;20183;-32
2023/03/19 08:34:21;;;;;;;5.70;4.67;;;11.30;99.90;;;;;;5032656;28;20310;-32
2023/03/19 08:36:47;;;;;;;5.80;4.67;;;11.40;99.90;;;;;;5043661;28;20254;-33
2023/03/19 08:39:14;;;;;;;6.67;4.20;;;11.50;99.90;;;;;;5053985;28;20193;-32
2023/03/19 08:41:40;;;;;;;6.63;4.70;;;11.50;99.90;;;;;;5054346;28;20260;-32
2023/03/19 08:44:05;;;;;;;5.83;4.20;;;11.50;99.90;;;;;;5069716;28;20226;-43
2023/03/19 08:46:32;;;;;;;7.40;4.97;;;11.50;99.90;;;;;;5051221;28;20306;-43
2023/03/19 08:48:58;;;;;;;6.23;4.13;;;11.60;99.90;;;;;;5042526;28;20187;-43
2023/03/19 08:51:25;;;;;;;5.30;4.80;;;11.60;99.90;;;;;;5043343;28;20196;-43
2023/03/19 08:53:55;;;;;;;6.23;4.97;;;11.70;99.90;;;;;;5039982;28;20205;-42
2023/03/19 08:56:23;;;;;;;4.33;3.80;;;12.00;99.90;;;;;;5033260;28;20181;-43
2023/03/19 08:58:48;;;;;;;6.30;4.53;;;12.20;99.90;;;;;;5064505;28;20178;-41
2023/03/19 09:01:14;;;;;;;7.03;4.77;;;12.30;99.90;;;;;;5039784;28;20181;-43
2023/03/19 09:03:42;;;;;;;6.50;5.03;;;12.60;99.90;;;;;;5040711;28;20207;-43
2023/03/19 09:06:10;;;;;;;5.03;4.37;;;12.80;99.90;;;;;;5056552;28;20181;-42
2023/03/19 09:08:37;;;;;;;6.47;4.60;;;12.90;99.90;;;;;;5039660;28;20263;-43
2023/03/19 09:11:04;;;;;;;4.77;3.97;;;13.00;99.90;;;;;;5040559;28;20176;-43
2023/03/19 09:13:30;;;;;;;4.50;4.00;;;13.20;99.90;;;;;;5041605;28;20201;-41
2023/03/19 09:15:56;;;;;;;4.87;3.97;;;13.40;99.90;;;;;;5042949;28;20213;-42
2023/03/19 09:18:25;;;;;;;6.00;3.47;;;13.40;99.90;;;;;;5044708;28;20232;-43
2023/03/19 09:20:52;;;;;;;5.77;3.60;;;13.50;99.90;;;;;;5058701;28;20190;-43
2023/03/19 09:23:19;;;;;;;6.23;3.37;;;13.70;99.90;;;;;;5056642;28;20197;-43
2023/03/19 09:25:45;;;;;;;3.50;3.10;;;13.80;99.90;;;;;;5057233;28;20182;-43
2023/03/19 09:28:12;;;;;;;6.20;3.50;;;13.90;99.90;;;;;;5041452;28;20241;-43
2023/03/19 09:30:38;;;;;;;5.43;3.33;;;13.80;99.90;;;;;;5055799;28;20650;-44
2023/03/19 09:33:05;;;;;;;5.40;3.00;;;13.90;99.90;;;;;;5045768;28;20174;-43
2023/03/19 09:35:32;;;;;;;4.00;2.57;;;14.10;99.90;;;;;;5053198;28;20197;-41
2023/03/19 09:37:58;;;;;;;5.30;2.97;;;14.30;99.90;;;;;;5042483;28;20188;-43
2023/03/19 09:40:28;;;;;;;6.07;3.17;;;14.40;99.90;;;;;;5049044;28;20186;-44
2023/03/19 09:43:23;;;;;;;3.87;2.73;;;14.50;99.90;;;;;;5036262;28;20179;-43
2023/03/19 09:45:50;;;;;;;4.33;3.00;;;14.60;99.90;;;;;;5048240;28;20253;-43
2023/03/19 09:48:27;;;;;;;4.97;2.53;;;14.60;99.90;;;;;;5053845;28;20206;-43
2023/03/19 09:50:55;;;;;;;5.00;2.50;;;14.70;99.90;;;;;;5040203;28;20182;-43
2023/03/19 09:53:50;;;;;;;3.63;2.57;;;14.80;99.90;;;;;;5041221;28;20202;-43
2023/03/19 09:56:18;;;;;;;4.73;3.10;;;14.80;99.90;;;;;;5051985;28;20229;-43
2023/03/19 09:58:44;;;;;;;4.27;2.57;;;14.80;99.90;;;;;;5047423;28;20236;-43
2023/03/19 10:01:27;;;;;;;6.30;2.80;;;14.90;99.90;;;;;;5047978;28;20195;-43
2023/03/19 10:04:05;;;;;;;3.47;2.67;;;14.90;99.90;;;;;;5031307;28;20209;-43
2023/03/19 10:06:39;;;;;;;5.00;2.20;;;14.90;99.90;;;;;;5031523;28;20178;-43
2023/03/19 10:09:26;;;;;;;2.77;1.90;;;15.00;99.90;;;;;;5031592;28;20278;-41
2023/03/19 10:12:16;;;;;;;4.20;2.00;;;15.10;99.90;;;;;;5031529;28;20174;-43
2023/03/19 10:15:03;;;;;;;4.20;2.17;;;15.10;99.90;;;;;;5032471;28;20213;-42
2023/03/19 10:17:36;;;;;;;3.23;2.27;;;15.20;99.90;;;;;;5030947;28;20209;-43
2023/03/19 10:20:15;;;;;;;7.00;2.90;;;15.30;99.90;;;;;;5047941;28;20170;-42
2023/03/19 10:22:49;;;;;;;4.03;2.33;;;15.40;99.90;;;;;;5055963;28;20182;-42
2023/03/19 10:25:23;;;;;;;3.00;2.07;;;15.40;99.90;;;;;;5058832;28;20300;-42
2023/03/19 10:28:10;;;;;;;4.10;2.00;;;15.30;99.90;;;;;;5050688;28;20189;-42
2023/03/19 10:30:36;;;;;;;2.43;2.23;;;15.30;99.90;;;;;;5049441;28;20244;-42
2023/03/19 10:33:22;;;;;;;5.50;2.47;;;15.30;99.90;;;;;;5040850;28;20182;-42
2023/03/19 10:36:06;;;;;;;3.93;2.70;;;15.30;99.90;;;;;;5041946;28;20205;-41
2023/03/19 10:38:32;;;;;;;4.33;2.87;;;15.30;99.90;;;;;;5032527;28;20170;-42
2023/03/19 10:41:16;;;;;;;3.73;2.40;;;15.30;99.90;;;;;;5047852;28;20179;-42
2023/03/19 10:43:46;;;;;;;2.77;2.27;;;15.40;99.90;;;;;;5051833;28;20197;-42
2023/03/19 10:46:14;;;;;;;2.67;2.03;;;15.50;99.90;;;;;;5050389;28;20178;-42
2023/03/19 10:48:45;;;;;;;4.07;2.37;;;15.50;99.90;;;;;;5062271;28;20186;-42
2023/03/19 10:51:24;;;;;;;3.13;2.43;;;15.60;99.90;;;;;;5043459;28;20213;-42
2023/03/19 10:53:52;;;;;;;2.97;2.27;;;15.70;99.90;;;;;;5037750;28;20190;-42
2023/03/19 10:56:18;;;;;;;4.17;2.77;;;15.80;99.90;;;;;;5047052;28;20182;-41
2023/03/19 10:59:05;;;;;;;3.93;2.70;;;15.80;99.90;;;;;;5031622;28;20175;-42
2023/03/19 11:01:38;;;;;;;2.27;2.07;;;15.90;99.90;;;;;;5031609;28;20209;-42
2023/03/19 11:04:20;;;;;;;3.60;2.47;;;15.80;99.90;;;;;;5030112;28;20207;-40
2023/03/19 11:06:51;;;;;;;2.70;2.20;;;15.70;99.90;;;;;;5031752;28;20269;-42
2023/03/19 11:09:32;;;;;;;3.57;2.00;;;15.70;99.90;;;;;;5030566;28;20170;-43
2023/03/19 11:12:24;;;;;;;4.03;2.40;;;15.80;99.90;;;;;;5046966;28;20187;-41
2023/03/19 11:14:52;;;;;;;3.33;2.10;;;15.90;99.90;;;;;;5029909;28;20206;-42
2023/03/19 11:17:39;;;;;;;2.77;1.80;;;15.90;99.90;;;;;;5046735;28;20181;-42
2023/03/19 11:20:14;;;;;;;3.47;2.00;;;15.90;99.90;;;;;;5036524;28;20190;-40
2023/03/19 11:22:40;;;;;;;3.30;2.20;;;15.90;99.90;;;;;;5021726;28;20178;-41
2023/03/19 11:25:23;;;;;;;3.53;2.23;;;15.90;99.90;;;;;;5031151;28;20195;-42
2023/03/19 11:28:02;;;;;;;3.50;1.90;;;16.00;99.90;;;;;;5046815;28;20179;-41
2023/03/19 11:30:37;;;;;;;2.83;1.83;;;16.10;99.90;;;;;;5029808;28;20225;-42
2023/03/19 11:33:18;;;;;;;2.23;1.80;;;16.10;99.90;;;;;;5031269;28;20227;-42
2023/03/19 11:36:03;;;;;;;2.93;2.13;;;16.10;99.90;;;;;;5030810;28;20206;-41
2023/03/19 11:38:47;;;;;;;3.87;2.20;;;16.20;99.90;;;;;;5029824;28;20221;-41
2023/03/19 11:41:51;;;;;;;2.47;1.90;;;16.40;99.90;;;;;;5046556;28;20178;-40
2023/03/19 11:44:33;;;;;;;5.37;2.37;;;16.40;99.90;;;;;;5029436;28;20225;-42
2023/03/19 11:47:02;;;;;;;3.97;2.27;;;16.50;99.90;;;;;;5013411;28;20662;-42
2023/03/19 11:49:55;;;;;;;3.10;2.20;;;16.70;99.90;;;;;;5030625;28;20174;-41
2023/03/19 11:52:39;;;;;;;5.20;2.13;;;16.70;99.90;;;;;;5031140;28;20174;-42
2023/03/19 11:55:15;;;;;;;4.27;2.10;;;16.60;99.90;;;;;;5045971;28;20238;-42
2023/03/19 11:57:53;;;;;;;2.67;2.17;;;16.50;99.90;;;;;;5030821;28;20179;-42
2023/03/19 12:00:28;;;;;;;3.20;2.20;;;16.60;99.90;;;;;;5029593;28;20178;-42
2023/03/19 12:03:32;;;;;;;3.00;1.90;;;16.60;99.90;;;;;;5046419;28;20170;-42
2023/03/19 12:06:16;;;;;;;2.73;2.20;;;16.40;99.90;;;;;;5029615;28;20205;-41
2023/03/19 12:09:03;;;;;;;2.90;2.10;;;16.40;99.90;;;;;;5046119;28;20186;-42
2023/03/19 12:11:46;;;;;;;3.60;1.90;;;16.30;99.90;;;;;;5029852;28;20186;-42
2023/03/19 12:14:18;;;;;;;3.60;2.07;;;16.30;99.90;;;;;;5030481;28;20281;-42
2023/03/19 12:16:47;;;;;;;4.87;2.57;;;16.30;99.90;;;;;;5046151;28;20175;-41
2023/03/19 12:19:15;;;;;;;5.30;2.57;;;16.40;99.90;;;;;;5030684;28;20193;-42
2023/03/19 12:21:44;;;;;;;3.50;2.30;;;16.40;99.90;;;;;;5058185;28;20193;-42
2023/03/19 12:24:42;;;;;;;3.27;2.07;;;16.30;99.90;;;;;;5033835;28;20194;-42
2023/03/19 12:27:35;;;;;;;3.07;2.20;;;16.30;99.90;;;;;;5048812;28;20190;-43
2023/03/19 12:30:17;;;;;;;3.80;2.13;;;16.30;99.90;;;;;;5066019;28;20192;-43
2023/03/19 12:33:14;;;;;;;3.30;2.23;;;16.30;99.90;;;;;;5050429;28;20170;-41
2023/03/19 12:35:45;;;;;;;4.67;2.50;;;16.20;99.90;;;;;;5031404;28;20249;-43
2023/03/19 12:38:33;;;;;;;6.07;2.30;;;16.20;99.90;;;;;;5049328;28;20178;-43
2023/03/19 12:41:02;;;;;;;5.33;2.30;;;16.20;99.90;;;;;;5049012;28;20181;-44
2023/03/19 12:43:35;;;;;;;3.70;2.00;;;16.30;99.90;;;;;;5050348;28;20212;-39
2023/03/19 12:46:13;;;;;;;4.00;2.22;;;16.40;99.90;;;;;;5050234;28;20216;-44
2023/03/19 12:49:06;;;;;;;2.87;1.87;;;16.50;99.90;;;;;;5053512;28;20193;-42
2023/03/19 12:51:40;;;;;;;4.70;2.50;;;16.50;99.90;;;;;;5043983;28;20189;-42
2023/03/19 12:54:22;;;;;;;2.50;1.75;;;16.50;99.90;;;;;;5052662;28;20206;-42
2023/03/19 12:56:57;;;;;;;3.67;2.20;;;16.40;99.90;;;;;;5049500;28;20179;-42
2023/03/19 12:59:45;;;;;;;2.93;2.10;;;16.30;99.90;;;;;;5049560;28;20182;-44
2023/03/19 13:02:31;;;;;;;2.47;2.13;;;16.20;99.90;;;;;;5049376;28;20179;-41
2023/03/19 13:05:22;;;;;;;2.43;2.00;;;16.30;99.90;;;;;;5024872;28;20218;-41
2023/03/19 13:07:58;;;;;;;3.50;2.08;;;16.40;99.90;;;;;;5049299;28;20182;-44
2023/03/19 13:10:25;;;;;;;4.53;1.98;;;16.40;99.90;;;;;;5049255;28;20182;-43
2023/03/19 13:12:52;;;;;;;3.73;2.03;;;16.50;99.90;;;;;;5033885;28;20209;-43
2023/03/19 13:15:21;;;;;;;3.50;2.05;;;16.60;99.90;;;;;;5031940;28;20202;-40